KLEW

Auburn / Lewiston Municipal Airport

Auburn/Lewiston, Maine, USA
METAR KLEW 230756Z AUTO 00000KT 10SM CLR M05/M09 A3071 RMK AO2 SLP416 T10501094 FZRANO
Observed Flight Rules
Feb-23 @ 07:56 UTC (11 minutes ago) Visual Flight Rules
Wind Visibility Clouds
Calm 10 miles
  • Clear skies
Temperatures Readings
Current -5°C / 23°F
Dewpoint -9°C / 16°F
Humidity 74%
Altimeter 30.71" Hg
Pressure 1041.6 hPa
Elevation 88
METAR KLEW 230756Z AUTO 00000KT 10SM CLR M05/M09 A3071 RMK AO2 SLP416 T10501094 FZRANO
Observed Flight Rules
Feb-23 @ 07:56 UTC
(11 minutes ago)
VFR
Wind Visibility
Calm 10 miles
Clouds
  • Clear skies
Temperature Dewpoint
-5°C / 23°F -9°C / 16°F
Humidity Altimeter Pressure
74% 30.71" Hg 1041.6 hPa